sensor_id;sensor_type;location;lat;lon;timestamp;pressure;altitude;pressure_sealevel;temperature;humidity
43804;BME280;29430;52.924;-2.388;2023-07-29T00:00:33;98020.78;;;16.41;89.25
43804;BME280;29430;52.924;-2.388;2023-07-29T00:05:24;98028.19;;;16.41;89.17
43804;BME280;29430;52.924;-2.388;2023-07-29T00:10:16;98020.34;;;16.34;89.32
43804;BME280;29430;52.924;-2.388;2023-07-29T00:15:08;98018.00;;;16.27;88.91
43804;BME280;29430;52.924;-2.388;2023-07-29T00:20:00;98022.22;;;16.20;88.42
43804;BME280;29430;52.924;-2.388;2023-07-29T00:24:53;98005.94;;;16.09;88.67
43804;BME280;29430;52.924;-2.388;2023-07-29T00:29:49;98021.34;;;16.05;89.26
43804;BME280;29430;52.924;-2.388;2023-07-29T00:34:41;98020.59;;;16.00;89.30
43804;BME280;29430;52.924;-2.388;2023-07-29T00:39:33;98023.91;;;15.97;90.32
43804;BME280;29430;52.924;-2.388;2023-07-29T00:44:25;98017.69;;;15.91;90.79
43804;BME280;29430;52.924;-2.388;2023-07-29T00:49:16;98015.53;;;15.88;90.28
43804;BME280;29430;52.924;-2.388;2023-07-29T00:54:08;98016.72;;;15.82;89.78
43804;BME280;29430;52.924;-2.388;2023-07-29T00:59:01;98012.38;;;15.81;89.69
43804;BME280;29430;52.924;-2.388;2023-07-29T01:03:53;98002.84;;;15.78;90.03
43804;BME280;29430;52.924;-2.388;2023-07-29T01:09:09;98005.84;;;15.76;90.09
43804;BME280;29430;52.924;-2.388;2023-07-29T01:19:04;98006.00;;;15.66;89.64
43804;BME280;29430;52.924;-2.388;2023-07-29T01:23:58;98005.53;;;15.59;87.66
43804;BME280;29430;52.924;-2.388;2023-07-29T01:28:50;97997.31;;;15.59;86.56
43804;BME280;29430;52.924;-2.388;2023-07-29T01:33:48;97996.53;;;15.58;86.59
43804;BME280;29430;52.924;-2.388;2023-07-29T01:38:43;97991.06;;;15.58;85.62
43804;BME280;29430;52.924;-2.388;2023-07-29T01:43:36;97992.81;;;15.49;85.17
43804;BME280;29430;52.924;-2.388;2023-07-29T01:48:39;97997.53;;;15.44;84.68
43804;BME280;29430;52.924;-2.388;2023-07-29T01:53:30;97983.09;;;15.38;84.06
43804;BME280;29430;52.924;-2.388;2023-07-29T01:58:23;97983.19;;;15.33;84.11
43804;BME280;29430;52.924;-2.388;2023-07-29T02:03:14;97975.84;;;15.28;84.50
43804;BME280;29430;52.924;-2.388;2023-07-29T02:08:06;97986.19;;;15.31;84.90
43804;BME280;29430;52.924;-2.388;2023-07-29T02:12:58;97980.50;;;15.28;85.03
43804;BME280;29430;52.924;-2.388;2023-07-29T02:17:50;97972.34;;;15.22;85.44
43804;BME280;29430;52.924;-2.388;2023-07-29T02:22:42;97969.91;;;15.21;85.48
43804;BME280;29430;52.924;-2.388;2023-07-29T02:27:33;97983.81;;;15.25;85.38
43804;BME280;29430;52.924;-2.388;2023-07-29T02:32:25;97990.97;;;15.20;86.10
43804;BME280;29430;52.924;-2.388;2023-07-29T02:37:17;97983.66;;;15.16;87.02
43804;BME280;29430;52.924;-2.388;2023-07-29T02:42:09;97980.41;;;15.14;87.59
43804;BME280;29430;52.924;-2.388;2023-07-29T02:47:00;97969.00;;;15.07;88.15
43804;BME280;29430;52.924;-2.388;2023-07-29T02:51:52;97967.94;;;15.02;88.85
43804;BME280;29430;52.924;-2.388;2023-07-29T02:56:44;97960.63;;;14.98;89.87
43804;BME280;29430;52.924;-2.388;2023-07-29T03:01:36;97960.69;;;14.93;90.17
43804;BME280;29430;52.924;-2.388;2023-07-29T03:06:28;97955.88;;;14.84;90.69
43804;BME280;29430;52.924;-2.388;2023-07-29T03:11:19;97946.63;;;14.80;90.88
43804;BME280;29430;52.924;-2.388;2023-07-29T03:16:13;97942.84;;;14.76;91.53
43804;BME280;29430;52.924;-2.388;2023-07-29T03:21:06;97940.69;;;14.73;91.10
43804;BME280;29430;52.924;-2.388;2023-07-29T03:25:59;97951.09;;;14.71;91.56
43804;BME280;29430;52.924;-2.388;2023-07-29T03:30:51;97952.19;;;14.70;91.39
43804;BME280;29430;52.924;-2.388;2023-07-29T03:35:42;97955.25;;;14.63;90.93
43804;BME280;29430;52.924;-2.388;2023-07-29T03:40:36;97950.41;;;14.55;91.50
43804;BME280;29430;52.924;-2.388;2023-07-29T03:45:27;97955.88;;;14.50;92.30
43804;BME280;29430;52.924;-2.388;2023-07-29T03:50:19;97944.53;;;14.43;92.91
43804;BME280;29430;52.924;-2.388;2023-07-29T03:55:11;97949.13;;;14.42;92.96
43804;BME280;29430;52.924;-2.388;2023-07-29T04:00:03;97938.81;;;14.39;93.61
43804;BME280;29430;52.924;-2.388;2023-07-29T04:04:55;97948.34;;;14.42;93.96
43804;BME280;29430;52.924;-2.388;2023-07-29T04:09:47;97943.47;;;14.39;94.13
43804;BME280;29430;52.924;-2.388;2023-07-29T04:14:38;97945.09;;;14.40;94.15
43804;BME280;29430;52.924;-2.388;2023-07-29T04:19:30;97942.06;;;14.41;94.42
43804;BME280;29430;52.924;-2.388;2023-07-29T04:24:22;97943.41;;;14.44;94.11
43804;BME280;29430;52.924;-2.388;2023-07-29T04:29:14;97942.03;;;14.46;94.55
43804;BME280;29430;52.924;-2.388;2023-07-29T04:34:06;97941.72;;;14.48;94.28
43804;BME280;29430;52.924;-2.388;2023-07-29T04:38:58;97944.47;;;14.48;95.29
43804;BME280;29430;52.924;-2.388;2023-07-29T04:43:50;97952.66;;;14.48;95.24
43804;BME280;29430;52.924;-2.388;2023-07-29T04:48:41;97959.44;;;14.50;95.98
43804;BME280;29430;52.924;-2.388;2023-07-29T04:53:33;97946.91;;;14.49;96.97
43804;BME280;29430;52.924;-2.388;2023-07-29T04:58:26;97953.16;;;14.50;97.81
43804;BME280;29430;52.924;-2.388;2023-07-29T05:03:20;97950.72;;;14.48;98.05
43804;BME280;29430;52.924;-2.388;2023-07-29T05:08:12;97954.03;;;14.45;99.09
43804;BME280;29430;52.924;-2.388;2023-07-29T05:13:03;97953.72;;;14.47;99.09
43804;BME280;29430;52.924;-2.388;2023-07-29T05:17:55;97948.81;;;14.49;98.82
43804;BME280;29430;52.924;-2.388;2023-07-29T05:22:47;97949.06;;;14.53;98.22
43804;BME280;29430;52.924;-2.388;2023-07-29T05:27:39;97951.44;;;14.59;97.70
43804;BME280;29430;52.924;-2.388;2023-07-29T05:32:30;97957.69;;;14.65;98.08
43804;BME280;29430;52.924;-2.388;2023-07-29T05:37:22;97948.94;;;14.68;97.57
43804;BME280;29430;52.924;-2.388;2023-07-29T05:42:14;97948.06;;;14.73;97.51
43804;BME280;29430;52.924;-2.388;2023-07-29T05:47:06;97948.06;;;14.73;97.08
43804;BME280;29430;52.924;-2.388;2023-07-29T05:51:57;97947.41;;;14.86;97.29
43804;BME280;29430;52.924;-2.388;2023-07-29T05:56:49;97958.72;;;14.98;96.48
43804;BME280;29430;52.924;-2.388;2023-07-29T06:01:41;97953.72;;;15.06;95.95
43804;BME280;29430;52.924;-2.388;2023-07-29T06:06:33;97971.66;;;15.12;95.90
43804;BME280;29430;52.924;-2.388;2023-07-29T06:11:25;97957.72;;;15.13;95.37
43804;BME280;29430;52.924;-2.388;2023-07-29T06:16:17;97952.44;;;15.22;95.62
43804;BME280;29430;52.924;-2.388;2023-07-29T06:21:08;97960.13;;;15.63;96.38
43804;BME280;29430;52.924;-2.388;2023-07-29T06:26:04;97951.25;;;16.09;92.61
43804;BME280;29430;52.924;-2.388;2023-07-29T06:30:55;97959.13;;;16.30;90.45
43804;BME280;29430;52.924;-2.388;2023-07-29T06:35:47;97950.94;;;16.30;89.22
43804;BME280;29430;52.924;-2.388;2023-07-29T06:40:39;97946.75;;;16.33;89.53
43804;BME280;29430;52.924;-2.388;2023-07-29T06:45:30;97971.81;;;16.40;88.73
43804;BME280;29430;52.924;-2.388;2023-07-29T06:50:22;97964.81;;;16.34;88.36
43804;BME280;29430;52.924;-2.388;2023-07-29T06:55:14;97967.34;;;16.30;88.35
43804;BME280;29430;52.924;-2.388;2023-07-29T07:00:06;97968.53;;;16.24;88.11
43804;BME280;29430;52.924;-2.388;2023-07-29T07:04:58;97973.28;;;16.18;91.13
43804;BME280;29430;52.924;-2.388;2023-07-29T07:09:49;97973.94;;;16.10;92.17
43804;BME280;29430;52.924;-2.388;2023-07-29T07:14:41;97982.50;;;16.03;94.64
43804;BME280;29430;52.924;-2.388;2023-07-29T07:19:33;97983.06;;;16.05;95.52
43804;BME280;29430;52.924;-2.388;2023-07-29T07:24:24;97970.97;;;16.06;94.93
43804;BME280;29430;52.924;-2.388;2023-07-29T07:29:16;97988.22;;;16.07;95.27
43804;BME280;29430;52.924;-2.388;2023-07-29T07:34:08;97980.03;;;16.07;96.59
43804;BME280;29430;52.924;-2.388;2023-07-29T07:39:00;97993.50;;;16.17;96.20
43804;BME280;29430;52.924;-2.388;2023-07-29T07:43:52;97997.00;;;16.23;95.69
43804;BME280;29430;52.924;-2.388;2023-07-29T07:48:43;97997.44;;;16.30;95.62
43804;BME280;29430;52.924;-2.388;2023-07-29T07:53:35;97998.28;;;16.44;96.54
43804;BME280;29430;52.924;-2.388;2023-07-29T07:58:27;97998.22;;;16.82;96.99
43804;BME280;29430;52.924;-2.388;2023-07-29T08:03:18;97994.63;;;17.29;91.35
43804;BME280;29430;52.924;-2.388;2023-07-29T08:08:10;97980.78;;;17.76;88.38
43804;BME280;29430;52.924;-2.388;2023-07-29T08:13:02;97982.06;;;18.83;86.61
43804;BME280;29430;52.924;-2.388;2023-07-29T08:17:53;97983.59;;;19.78;80.24
43804;BME280;29430;52.924;-2.388;2023-07-29T08:22:45;97978.63;;;19.97;71.72
43804;BME280;29430;52.924;-2.388;2023-07-29T08:27:37;97984.50;;;19.64;72.21
43804;BME280;29430;52.924;-2.388;2023-07-29T08:32:28;97981.56;;;19.52;74.25
43804;BME280;29430;52.924;-2.388;2023-07-29T08:37:20;97978.88;;;19.70;72.53
43804;BME280;29430;52.924;-2.388;2023-07-29T08:42:12;97981.56;;;19.52;69.09
43804;BME280;29430;52.924;-2.388;2023-07-29T08:47:06;97960.41;;;19.70;67.80
43804;BME280;29430;52.924;-2.388;2023-07-29T08:51:59;97972.63;;;19.87;67.45
43804;BME280;29430;52.924;-2.388;2023-07-29T08:56:51;97961.28;;;20.14;68.20
43804;BME280;29430;52.924;-2.388;2023-07-29T09:01:43;97964.31;;;20.48;64.53
43804;BME280;29430;52.924;-2.388;2023-07-29T09:06:35;97973.88;;;20.50;63.22
43804;BME280;29430;52.924;-2.388;2023-07-29T09:11:28;97969.69;;;20.44;63.21
43804;BME280;29430;52.924;-2.388;2023-07-29T09:16:21;98000.63;;;20.15;64.31
43804;BME280;29430;52.924;-2.388;2023-07-29T09:21:15;98010.84;;;19.48;69.47
43804;BME280;29430;52.924;-2.388;2023-07-29T09:26:06;98002.13;;;18.83;72.70
43804;BME280;29430;52.924;-2.388;2023-07-29T09:30:58;98003.72;;;18.53;74.10
43804;BME280;29430;52.924;-2.388;2023-07-29T09:35:51;97997.28;;;18.35;72.91
43804;BME280;29430;52.924;-2.388;2023-07-29T09:40:42;97996.50;;;18.66;76.16
43804;BME280;29430;52.924;-2.388;2023-07-29T09:45:37;97997.44;;;19.55;72.36
43804;BME280;29430;52.924;-2.388;2023-07-29T09:50:29;97988.00;;;20.23;67.98
43804;BME280;29430;52.924;-2.388;2023-07-29T09:55:22;97981.47;;;20.80;68.93
43804;BME280;29430;52.924;-2.388;2023-07-29T10:00:15;97982.31;;;21.49;65.57
43804;BME280;29430;52.924;-2.388;2023-07-29T10:05:08;97992.72;;;21.81;62.40
43804;BME280;29430;52.924;-2.388;2023-07-29T10:10:02;97991.09;;;22.23;57.44
43804;BME280;29430;52.924;-2.388;2023-07-29T10:14:59;97991.91;;;22.44;56.08
43804;BME280;29430;52.924;-2.388;2023-07-29T10:19:52;97995.63;;;22.48;55.92
43804;BME280;29430;52.924;-2.388;2023-07-29T10:24:44;98001.09;;;22.36;56.67
43804;BME280;29430;52.924;-2.388;2023-07-29T10:29:39;98015.25;;;22.34;55.80
43804;BME280;29430;52.924;-2.388;2023-07-29T10:34:35;98016.09;;;22.47;55.42
43804;BME280;29430;52.924;-2.388;2023-07-29T10:39:37;98013.47;;;22.84;53.28
43804;BME280;29430;52.924;-2.388;2023-07-29T10:49:35;98027.53;;;23.13;52.46
43804;BME280;29430;52.924;-2.388;2023-07-29T10:54:27;98033.13;;;23.04;50.03
43804;BME280;29430;52.924;-2.388;2023-07-29T11:14:45;98032.28;;;23.74;48.20
43804;BME280;29430;52.924;-2.388;2023-07-29T11:19:38;98025.72;;;23.66;49.29
43804;BME280;29430;52.924;-2.388;2023-07-29T11:24:30;98036.78;;;24.03;48.91
43804;BME280;29430;52.924;-2.388;2023-07-29T11:29:22;98037.81;;;24.11;46.90
43804;BME280;29430;52.924;-2.388;2023-07-29T11:34:15;98052.72;;;24.06;46.10
43804;BME280;29430;52.924;-2.388;2023-07-29T11:39:11;98045.00;;;24.00;46.96
43804;BME280;29430;52.924;-2.388;2023-07-29T11:44:03;98048.66;;;24.28;48.70
43804;BME280;29430;52.924;-2.388;2023-07-29T11:48:55;98052.31;;;24.33;47.12
43804;BME280;29430;52.924;-2.388;2023-07-29T11:53:46;98050.41;;;24.21;46.29
43804;BME280;29430;52.924;-2.388;2023-07-29T11:58:38;98043.25;;;24.20;45.10
43804;BME280;29430;52.924;-2.388;2023-07-29T12:03:30;98038.38;;;24.29;45.97
43804;BME280;29430;52.924;-2.388;2023-07-29T12:08:23;98050.06;;;24.22;47.41
43804;BME280;29430;52.924;-2.388;2023-07-29T12:13:15;98050.88;;;24.10;47.77
43804;BME280;29430;52.924;-2.388;2023-07-29T12:18:07;98057.75;;;24.29;45.81
43804;BME280;29430;52.924;-2.388;2023-07-29T12:23:00;98056.03;;;24.24;45.35
43804;BME280;29430;52.924;-2.388;2023-07-29T12:28:05;98056.50;;;24.14;46.22
43804;BME280;29430;52.924;-2.388;2023-07-29T12:32:57;98057.72;;;24.01;45.21
43804;BME280;29430;52.924;-2.388;2023-07-29T12:37:59;98061.72;;;23.91;45.66
43804;BME280;29430;52.924;-2.388;2023-07-29T12:42:51;98063.72;;;23.90;45.88
43804;BME280;29430;52.924;-2.388;2023-07-29T12:47:43;98063.00;;;23.69;45.72
43804;BME280;29430;52.924;-2.388;2023-07-29T12:52:35;98072.44;;;23.55;46.71
43804;BME280;29430;52.924;-2.388;2023-07-29T12:57:27;98058.81;;;23.38;47.39
43804;BME280;29430;52.924;-2.388;2023-07-29T13:02:18;98064.22;;;23.34;47.11
43804;BME280;29430;52.924;-2.388;2023-07-29T13:07:11;98070.44;;;23.19;47.08
43804;BME280;29430;52.924;-2.388;2023-07-29T13:12:02;98058.88;;;23.17;47.58
43804;BME280;29430;52.924;-2.388;2023-07-29T13:16:54;98063.88;;;23.23;47.45
43804;BME280;29430;52.924;-2.388;2023-07-29T13:21:46;98050.41;;;23.01;47.39
43804;BME280;29430;52.924;-2.388;2023-07-29T13:26:37;98057.94;;;22.79;46.63
43804;BME280;29430;52.924;-2.388;2023-07-29T13:31:30;98065.56;;;22.61;49.61
43804;BME280;29430;52.924;-2.388;2023-07-29T13:36:22;98068.00;;;22.63;49.11
43804;BME280;29430;52.924;-2.388;2023-07-29T13:41:14;98080.41;;;22.57;46.79
43804;BME280;29430;52.924;-2.388;2023-07-29T13:46:05;98067.94;;;22.50;46.71
43804;BME280;29430;52.924;-2.388;2023-07-29T13:50:57;98075.63;;;22.45;48.47
43804;BME280;29430;52.924;-2.388;2023-07-29T13:55:49;98084.44;;;22.38;48.88
43804;BME280;29430;52.924;-2.388;2023-07-29T14:00:41;98084.66;;;22.33;48.83
43804;BME280;29430;52.924;-2.388;2023-07-29T14:05:32;98088.06;;;22.30;49.68
43804;BME280;29430;52.924;-2.388;2023-07-29T14:10:24;98090.69;;;22.26;48.49
43804;BME280;29430;52.924;-2.388;2023-07-29T14:15:16;98103.41;;;22.18;48.83
43804;BME280;29430;52.924;-2.388;2023-07-29T14:20:09;98085.09;;;22.14;48.46
43804;BME280;29430;52.924;-2.388;2023-07-29T14:25:01;98104.31;;;22.02;48.97
43804;BME280;29430;52.924;-2.388;2023-07-29T14:29:52;98097.72;;;21.94;50.29
43804;BME280;29430;52.924;-2.388;2023-07-29T14:34:44;98106.69;;;21.82;51.15
43804;BME280;29430;52.924;-2.388;2023-07-29T14:39:36;98105.03;;;21.90;50.26
43804;BME280;29430;52.924;-2.388;2023-07-29T14:44:27;98099.31;;;21.95;49.06
43804;BME280;29430;52.924;-2.388;2023-07-29T14:49:19;98089.34;;;22.03;48.92
43804;BME280;29430;52.924;-2.388;2023-07-29T14:54:11;98109.09;;;22.13;49.22
43804;BME280;29430;52.924;-2.388;2023-07-29T14:59:03;98115.06;;;21.94;49.08
43804;BME280;29430;52.924;-2.388;2023-07-29T15:03:54;98117.09;;;21.76;49.44
43804;BME280;29430;52.924;-2.388;2023-07-29T15:08:46;98108.00;;;21.76;49.74
43804;BME280;29430;52.924;-2.388;2023-07-29T15:13:38;98122.00;;;21.71;48.95
43804;BME280;29430;52.924;-2.388;2023-07-29T15:18:30;98110.00;;;21.67;48.99
43804;BME280;29430;52.924;-2.388;2023-07-29T15:23:22;98128.31;;;21.71;49.79
43804;BME280;29430;52.924;-2.388;2023-07-29T15:28:13;98118.41;;;21.70;49.28
43804;BME280;29430;52.924;-2.388;2023-07-29T15:33:05;98115.84;;;21.65;51.32
43804;BME280;29430;52.924;-2.388;2023-07-29T15:37:57;98105.25;;;21.76;50.34
43804;BME280;29430;52.924;-2.388;2023-07-29T15:42:49;98085.81;;;21.72;48.88
43804;BME280;29430;52.924;-2.388;2023-07-29T15:47:41;98126.09;;;21.64;48.28
43804;BME280;29430;52.924;-2.388;2023-07-29T15:52:33;98112.50;;;21.42;48.94
43804;BME280;29430;52.924;-2.388;2023-07-29T15:57:24;98115.09;;;21.38;51.42
43804;BME280;29430;52.924;-2.388;2023-07-29T16:02:16;98110.69;;;21.46;51.68
43804;BME280;29430;52.924;-2.388;2023-07-29T16:07:08;98119.19;;;21.32;52.26
43804;BME280;29430;52.924;-2.388;2023-07-29T16:11:59;98117.69;;;21.35;51.92
43804;BME280;29430;52.924;-2.388;2023-07-29T16:16:53;98111.72;;;21.24;52.95
43804;BME280;29430;52.924;-2.388;2023-07-29T16:21:44;98112.88;;;21.23;52.26
43804;BME280;29430;52.924;-2.388;2023-07-29T16:26:36;98111.56;;;21.29;51.32
43804;BME280;29430;52.924;-2.388;2023-07-29T16:31:28;98128.09;;;21.29;52.40
43804;BME280;29430;52.924;-2.388;2023-07-29T16:36:20;98116.28;;;21.11;51.94
43804;BME280;29430;52.924;-2.388;2023-07-29T16:41:12;98111.75;;;21.06;51.69
43804;BME280;29430;52.924;-2.388;2023-07-29T16:46:24;98115.69;;;21.05;52.26
43804;BME280;29430;52.924;-2.388;2023-07-29T16:51:15;98121.19;;;21.05;51.63
43804;BME280;29430;52.924;-2.388;2023-07-29T16:56:07;98110.97;;;20.97;50.93
43804;BME280;29430;52.924;-2.388;2023-07-29T17:00:59;98115.69;;;20.97;52.60
43804;BME280;29430;52.924;-2.388;2023-07-29T17:05:51;98132.72;;;20.90;51.13
43804;BME280;29430;52.924;-2.388;2023-07-29T17:10:46;98136.25;;;20.82;51.65
43804;BME280;29430;52.924;-2.388;2023-07-29T17:15:38;98141.63;;;20.69;52.83
43804;BME280;29430;52.924;-2.388;2023-07-29T17:20:30;98130.72;;;20.55;52.80
43804;BME280;29430;52.924;-2.388;2023-07-29T17:25:22;98135.41;;;20.46;53.56
43804;BME280;29430;52.924;-2.388;2023-07-29T17:30:14;98143.69;;;20.37;54.24
43804;BME280;29430;52.924;-2.388;2023-07-29T17:35:06;98147.72;;;20.31;53.66
43804;BME280;29430;52.924;-2.388;2023-07-29T17:39:58;98134.88;;;20.18;53.50
43804;BME280;29430;52.924;-2.388;2023-07-29T17:44:50;98163.06;;;20.15;54.63
43804;BME280;29430;52.924;-2.388;2023-07-29T17:49:41;98156.91;;;20.18;54.03
43804;BME280;29430;52.924;-2.388;2023-07-29T17:54:33;98162.06;;;20.11;54.48
43804;BME280;29430;52.924;-2.388;2023-07-29T17:59:25;98162.69;;;20.08;53.94
43804;BME280;29430;52.924;-2.388;2023-07-29T18:04:17;98173.22;;;20.06;54.48
43804;BME280;29430;52.924;-2.388;2023-07-29T18:09:08;98166.41;;;20.03;54.33
43804;BME280;29430;52.924;-2.388;2023-07-29T18:14:00;98171.22;;;19.89;54.61
43804;BME280;29430;52.924;-2.388;2023-07-29T18:18:52;98176.19;;;19.78;55.32
43804;BME280;29430;52.924;-2.388;2023-07-29T18:23:43;98185.44;;;19.59;54.53
43804;BME280;29430;52.924;-2.388;2023-07-29T18:28:35;98181.09;;;19.36;55.47
43804;BME280;29430;52.924;-2.388;2023-07-29T18:33:27;98167.38;;;19.13;56.65
43804;BME280;29430;52.924;-2.388;2023-07-29T18:38:19;98179.78;;;19.10;57.14
43804;BME280;29430;52.924;-2.388;2023-07-29T18:43:10;98174.09;;;19.07;58.30
43804;BME280;29430;52.924;-2.388;2023-07-29T18:48:03;98169.84;;;19.01;58.52
43804;BME280;29430;52.924;-2.388;2023-07-29T18:52:55;98172.97;;;18.85;59.28
43804;BME280;29430;52.924;-2.388;2023-07-29T18:57:49;98184.91;;;18.67;58.73
43804;BME280;29430;52.924;-2.388;2023-07-29T19:02:41;98189.22;;;18.45;58.71
43804;BME280;29430;52.924;-2.388;2023-07-29T19:07:36;98186.28;;;18.28;59.42
43804;BME280;29430;52.924;-2.388;2023-07-29T19:12:27;98185.69;;;18.17;59.73
43804;BME280;29430;52.924;-2.388;2023-07-29T19:17:19;98194.41;;;18.05;60.93
43804;BME280;29430;52.924;-2.388;2023-07-29T19:22:11;98185.88;;;17.93;61.67
43804;BME280;29430;52.924;-2.388;2023-07-29T19:27:03;98191.66;;;17.91;62.37
43804;BME280;29430;52.924;-2.388;2023-07-29T19:32:00;98188.16;;;17.85;62.61
43804;BME280;29430;52.924;-2.388;2023-07-29T19:36:52;98189.78;;;17.72;63.60
43804;BME280;29430;52.924;-2.388;2023-07-29T19:41:44;98189.38;;;17.65;64.36
43804;BME280;29430;52.924;-2.388;2023-07-29T19:46:36;98205.19;;;17.54;65.62
43804;BME280;29430;52.924;-2.388;2023-07-29T19:51:29;98212.47;;;17.45;66.38
43804;BME280;29430;52.924;-2.388;2023-07-29T19:56:22;98207.69;;;17.37;67.13
43804;BME280;29430;52.924;-2.388;2023-07-29T20:01:14;98212.53;;;17.26;68.24
43804;BME280;29430;52.924;-2.388;2023-07-29T20:06:06;98211.88;;;17.15;68.95
43804;BME280;29430;52.924;-2.388;2023-07-29T20:10:58;98208.19;;;17.06;69.50
43804;BME280;29430;52.924;-2.388;2023-07-29T20:15:51;98201.25;;;16.95;69.75
43804;BME280;29430;52.924;-2.388;2023-07-29T20:20:43;98201.34;;;16.85;69.64
43804;BME280;29430;52.924;-2.388;2023-07-29T20:25:34;98210.84;;;16.73;69.29
43804;BME280;29430;52.924;-2.388;2023-07-29T20:30:26;98209.31;;;16.62;69.11
43804;BME280;29430;52.924;-2.388;2023-07-29T20:35:21;98202.66;;;16.49;69.68
43804;BME280;29430;52.924;-2.388;2023-07-29T20:40:15;98214.28;;;16.41;70.54
43804;BME280;29430;52.924;-2.388;2023-07-29T20:45:07;98215.19;;;16.31;71.22
43804;BME280;29430;52.924;-2.388;2023-07-29T20:49:59;98204.31;;;16.26;71.76
43804;BME280;29430;52.924;-2.388;2023-07-29T20:54:51;98206.84;;;16.22;72.32
43804;BME280;29430;52.924;-2.388;2023-07-29T20:59:42;98197.88;;;16.17;72.81
43804;BME280;29430;52.924;-2.388;2023-07-29T21:04:34;98205.56;;;16.15;72.56
43804;BME280;29430;52.924;-2.388;2023-07-29T21:09:26;98202.56;;;16.11;72.20
43804;BME280;29430;52.924;-2.388;2023-07-29T21:14:18;98223.72;;;16.05;72.46
43804;BME280;29430;52.924;-2.388;2023-07-29T21:19:09;98209.88;;;15.97;73.05
43804;BME280;29430;52.924;-2.388;2023-07-29T21:24:01;98217.88;;;15.88;73.31
43804;BME280;29430;52.924;-2.388;2023-07-29T21:28:53;98219.03;;;15.82;73.61
43804;BME280;29430;52.924;-2.388;2023-07-29T21:33:44;98220.19;;;15.75;73.73
43804;BME280;29430;52.924;-2.388;2023-07-29T21:38:36;98223.50;;;15.72;74.15
43804;BME280;29430;52.924;-2.388;2023-07-29T21:43:28;98223.53;;;15.67;74.61
43804;BME280;29430;52.924;-2.388;2023-07-29T21:48:20;98223.00;;;15.65;74.89
43804;BME280;29430;52.924;-2.388;2023-07-29T21:53:11;98224.69;;;15.61;75.42
43804;BME280;29430;52.924;-2.388;2023-07-29T21:58:03;98225.25;;;15.58;75.64
43804;BME280;29430;52.924;-2.388;2023-07-29T22:02:55;98225.25;;;15.58;76.13
43804;BME280;29430;52.924;-2.388;2023-07-29T22:07:46;98227.97;;;15.63;76.23
43804;BME280;29430;52.924;-2.388;2023-07-29T22:12:38;98226.31;;;15.62;76.67
43804;BME280;29430;52.924;-2.388;2023-07-29T22:17:30;98230.44;;;15.60;77.05
43804;BME280;29430;52.924;-2.388;2023-07-29T22:22:21;98235.66;;;15.56;77.27
43804;BME280;29430;52.924;-2.388;2023-07-29T22:27:13;98231.06;;;15.51;77.47
43804;BME280;29430;52.924;-2.388;2023-07-29T22:32:05;98237.69;;;15.45;78.31
43804;BME280;29430;52.924;-2.388;2023-07-29T22:36:57;98233.00;;;15.46;78.88
43804;BME280;29430;52.924;-2.388;2023-07-29T22:41:49;98234.13;;;15.45;78.85
43804;BME280;29430;52.924;-2.388;2023-07-29T22:46:41;98242.34;;;15.39;79.38
43804;BME280;29430;52.924;-2.388;2023-07-29T22:51:33;98252.81;;;15.32;80.42
43804;BME280;29430;52.924;-2.388;2023-07-29T22:56:25;98238.66;;;15.25;80.38
43804;BME280;29430;52.924;-2.388;2023-07-29T23:01:16;98258.88;;;15.24;81.08
43804;BME280;29430;52.924;-2.388;2023-07-29T23:06:08;98256.41;;;15.22;81.71
43804;BME280;29430;52.924;-2.388;2023-07-29T23:11:01;98239.78;;;15.19;81.84
43804;BME280;29430;52.924;-2.388;2023-07-29T23:15:53;98239.28;;;15.17;82.75
43804;BME280;29430;52.924;-2.388;2023-07-29T23:20:45;98225.34;;;15.18;82.29
43804;BME280;29430;52.924;-2.388;2023-07-29T23:25:37;98235.41;;;15.18;82.64
43804;BME280;29430;52.924;-2.388;2023-07-29T23:30:28;98237.88;;;15.19;83.33
43804;BME280;29430;52.924;-2.388;2023-07-29T23:35:20;98235.41;;;15.18;82.93
43804;BME280;29430;52.924;-2.388;2023-07-29T23:40:12;98227.78;;;15.15;82.74
43804;BME280;29430;52.924;-2.388;2023-07-29T23:45:04;98231.09;;;15.12;83.17
43804;BME280;29430;52.924;-2.388;2023-07-29T23:49:56;98228.66;;;15.10;83.50
43804;BME280;29430;52.924;-2.388;2023-07-29T23:54:48;98231.16;;;15.07;83.47
43804;BME280;29430;52.924;-2.388;2023-07-29T23:59:40;98224.03;;;15.06;84.04
